Time;durP1;ratioP1;P1;durP2;ratioP2;P2;SDS_P1;SDS_P2;PMS_P1;PMS_P2;Temp;Humidity;BMP_temperature;BMP_pressure;BME280_temperature;BME280_humidity;BME280_pressure;Samples;Min_cycle;Max_cycle;Signal;HPM_P1;HPM_P2
2021/09/02 00:00:07;;;;;;;29.87;11.53;;;;;;;;;;5030476;28;20283;-83
2021/09/02 00:02:32;;;;;;;28.70;11.95;;;;;;;;;;5036988;28;20261;-83
2021/09/02 00:04:58;;;;;;;32.10;11.53;;;;;;;;;;5035924;28;20052;-83
2021/09/02 00:07:23;;;;;;;28.07;12.03;;;;;;;;;;5033254;28;20485;-83
2021/09/02 00:09:48;;;;;;;27.88;11.18;;;;;;;;;;5035500;28;20027;-83
2021/09/02 00:12:13;;;;;;;30.42;10.50;;;;;;;;;;5032446;28;20552;-83
2021/09/02 00:14:39;;;;;;;26.75;10.20;;;;;;;;;;5032648;28;20120;-83
2021/09/02 00:17:04;;;;;;;37.88;11.70;;;;;;;;;;5031469;28;20068;-82
2021/09/02 00:19:29;;;;;;;28.17;11.82;;;;;;;;;;5031813;28;20022;-83
2021/09/02 00:21:55;;;;;;;29.67;10.23;;;;;;;;;;5031190;28;20108;-83
2021/09/02 00:24:20;;;;;;;31.48;10.93;;;;;;;;;;5030827;28;20037;-83
2021/09/02 00:26:45;;;;;;;21.77;9.32;;;;;;;;;;5028719;28;20386;-83
2021/09/02 00:29:10;;;;;;;38.57;11.00;;;;;;;;;;5036779;28;20041;-83
2021/09/02 00:31:36;;;;;;;25.55;10.82;;;;;;;;;;5033895;28;20260;-83
2021/09/02 00:34:01;;;;;;;24.45;10.05;;;;;;;;;;5032229;28;20053;-83
2021/09/02 00:36:26;;;;;;;24.27;10.45;;;;;;;;;;5031231;28;20519;-83
2021/09/02 00:38:51;;;;;;;32.45;11.20;;;;;;;;;;5033954;28;20056;-83
2021/09/02 00:41:17;;;;;;;26.23;10.40;;;;;;;;;;5034241;28;20028;-83
2021/09/02 00:43:42;;;;;;;34.13;10.27;;;;;;;;;;5033824;28;20025;-83
2021/09/02 00:46:11;;;;;;;31.15;10.63;;;;;;;;;;5034206;28;20116;-83
2021/09/02 00:48:36;;;;;;;30.67;12.05;;;;;;;;;;5032967;28;20025;-83
2021/09/02 00:51:02;;;;;;;36.97;10.55;;;;;;;;;;5034910;28;20104;-83
2021/09/02 00:53:28;;;;;;;27.95;9.38;;;;;;;;;;5036041;28;20021;-84
2021/09/02 00:55:53;;;;;;;30.58;10.70;;;;;;;;;;5041053;28;20028;-83
2021/09/02 00:58:19;;;;;;;27.87;10.17;;;;;;;;;;5037948;28;20029;-83
2021/09/02 01:00:44;;;;;;;31.10;10.70;;;;;;;;;;5036515;28;20075;-83
2021/09/02 01:03:10;;;;;;;27.70;9.83;;;;;;;;;;5034874;28;20068;-83
2021/09/02 01:05:35;;;;;;;22.50;9.23;;;;;;;;;;5035035;28;20090;-83
2021/09/02 01:08:02;;;;;;;27.67;10.43;;;;;;;;;;5038704;28;20665;-84
2021/09/02 01:10:27;;;;;;;24.95;10.30;;;;;;;;;;5037312;28;20284;-83
2021/09/02 01:12:52;;;;;;;28.80;10.03;;;;;;;;;;5037057;28;20380;-84
2021/09/02 01:15:18;;;;;;;25.02;9.35;;;;;;;;;;5035816;28;20040;-83
2021/09/02 01:17:44;;;;;;;28.52;10.50;;;;;;;;;;5034319;28;20042;-83
2021/09/02 01:20:11;;;;;;;26.65;9.82;;;;;;;;;;5033834;28;20111;-83
2021/09/02 01:22:37;;;;;;;25.30;9.80;;;;;;;;;;5039866;28;20096;-84
2021/09/02 01:25:04;;;;;;;26.98;10.45;;;;;;;;;;5036548;28;20057;-83
2021/09/02 01:27:29;;;;;;;25.38;11.82;;;;;;;;;;5036543;28;20453;-83
2021/09/02 01:29:58;;;;;;;25.65;9.40;;;;;;;;;;5036162;28;20061;-83
2021/09/02 01:32:30;;;;;;;31.85;9.70;;;;;;;;;;5034778;28;20029;-83
2021/09/02 01:34:56;;;;;;;21.80;9.80;;;;;;;;;;5033903;28;20017;-83
2021/09/02 01:37:22;;;;;;;32.80;10.88;;;;;;;;;;5034165;28;20025;-83
2021/09/02 01:39:48;;;;;;;29.92;10.77;;;;;;;;;;5031639;28;20108;-83
2021/09/02 01:42:14;;;;;;;25.63;9.77;;;;;;;;;;5032890;28;20120;-83
2021/09/02 01:44:39;;;;;;;25.75;11.50;;;;;;;;;;5037338;28;20064;-83
2021/09/02 01:47:17;;;;;;;26.52;11.00;;;;;;;;;;5036756;28;20032;-83
2021/09/02 01:49:43;;;;;;;26.77;9.88;;;;;;;;;;5036476;28;20021;-83
2021/09/02 01:52:08;;;;;;;27.57;11.80;;;;;;;;;;5037865;28;20033;-84
2021/09/02 01:54:33;;;;;;;27.87;10.73;;;;;;;;;;5037148;28;20700;-83
2021/09/02 01:56:58;;;;;;;36.60;10.70;;;;;;;;;;5036494;28;20029;-83
2021/09/02 01:59:23;;;;;;;28.87;10.63;;;;;;;;;;5035483;28;20534;-83
2021/09/02 02:01:49;;;;;;;27.93;10.00;;;;;;;;;;5032698;28;20025;-83
2021/09/02 02:04:14;;;;;;;29.47;11.93;;;;;;;;;;5034362;28;20095;-83
2021/09/02 02:06:39;;;;;;;28.67;11.47;;;;;;;;;;5033176;28;20264;-83
2021/09/02 02:09:04;;;;;;;20.93;10.33;;;;;;;;;;5030834;28;20108;-82
2021/09/02 02:11:29;;;;;;;27.80;11.67;;;;;;;;;;5032363;28;20290;-82
2021/09/02 02:13:54;;;;;;;22.40;9.90;;;;;;;;;;5031935;28;20025;-83
2021/09/02 02:16:20;;;;;;;25.87;11.53;;;;;;;;;;5036366;28;20287;-83
2021/09/02 02:18:45;;;;;;;31.53;11.10;;;;;;;;;;5038789;28;20033;-83
2021/09/02 02:21:10;;;;;;;24.97;9.80;;;;;;;;;;5037601;28;20264;-83
2021/09/02 02:23:35;;;;;;;31.20;12.47;;;;;;;;;;5034100;28;20508;-83
2021/09/02 02:26:00;;;;;;;28.80;9.77;;;;;;;;;;5033200;28;20786;-83
2021/09/02 02:28:26;;;;;;;29.17;10.63;;;;;;;;;;5033777;28;20264;-83
2021/09/02 02:30:51;;;;;;;25.58;10.70;;;;;;;;;;5033293;28;20036;-83
2021/09/02 02:33:16;;;;;;;30.97;11.80;;;;;;;;;;5031166;28;20108;-83
2021/09/02 02:35:41;;;;;;;24.13;10.73;;;;;;;;;;5032021;28;20256;-83
2021/09/02 02:38:06;;;;;;;26.87;12.43;;;;;;;;;;5032114;28;20018;-83
2021/09/02 02:40:31;;;;;;;27.47;11.27;;;;;;;;;;5030142;28;20501;-83
2021/09/02 02:42:58;;;;;;;41.40;11.97;;;;;;;;;;5034689;28;20271;-83
2021/09/02 02:45:23;;;;;;;30.45;10.88;;;;;;;;;;5038104;28;20260;-83
2021/09/02 02:47:49;;;;;;;27.00;10.38;;;;;;;;;;5036516;28;20033;-84
2021/09/02 02:50:14;;;;;;;19.92;9.82;;;;;;;;;;5037053;28;20036;-83
2021/09/02 02:52:39;;;;;;;26.17;10.77;;;;;;;;;;5034589;28;20032;-83
2021/09/02 02:55:05;;;;;;;25.85;10.40;;;;;;;;;;5033445;28;20027;-83
2021/09/02 02:57:30;;;;;;;27.55;10.55;;;;;;;;;;5034333;28;20132;-83
2021/09/02 02:59:55;;;;;;;26.03;11.93;;;;;;;;;;5032850;28;20025;-83
2021/09/02 03:02:20;;;;;;;27.33;11.20;;;;;;;;;;5031713;28;20172;-83
2021/09/02 03:04:45;;;;;;;28.00;10.83;;;;;;;;;;5031675;28;20021;-83
2021/09/02 03:07:11;;;;;;;22.90;10.40;;;;;;;;;;5031428;28;20268;-83
2021/09/02 03:09:36;;;;;;;25.80;10.47;;;;;;;;;;5031117;28;20292;-83
2021/09/02 03:12:01;;;;;;;31.20;9.93;;;;;;;;;;5036251;28;20392;-83
2021/09/02 03:14:26;;;;;;;22.77;10.37;;;;;;;;;;5035975;28;20033;-83
2021/09/02 03:16:51;;;;;;;22.10;9.88;;;;;;;;;;5033766;28;20292;-83
2021/09/02 03:19:17;;;;;;;26.08;10.90;;;;;;;;;;5035436;28;20021;-83
2021/09/02 03:21:42;;;;;;;33.40;10.80;;;;;;;;;;5035358;28;20088;-83
2021/09/02 03:24:07;;;;;;;28.83;9.77;;;;;;;;;;5035044;28;20341;-83
2021/09/02 03:26:32;;;;;;;28.30;10.93;;;;;;;;;;5031897;28;20040;-83
2021/09/02 03:28:57;;;;;;;23.08;10.48;;;;;;;;;;5030996;28;20029;-83
2021/09/02 03:31:22;;;;;;;26.47;10.90;;;;;;;;;;5030821;28;20037;-83
2021/09/02 03:33:48;;;;;;;26.08;9.93;;;;;;;;;;5032091;28;20036;-83
2021/09/02 03:36:13;;;;;;;24.40;11.10;;;;;;;;;;5034492;28;20018;-83
2021/09/02 03:38:38;;;;;;;26.27;11.17;;;;;;;;;;5036704;28;20073;-83
2021/09/02 03:41:03;;;;;;;23.13;9.80;;;;;;;;;;5035988;28;20656;-83
2021/09/02 03:43:29;;;;;;;32.80;11.13;;;;;;;;;;5034457;28;20017;-83
2021/09/02 03:45:54;;;;;;;22.55;9.27;;;;;;;;;;5033509;28;20275;-84
2021/09/02 03:48:19;;;;;;;27.10;9.80;;;;;;;;;;5031727;28;20064;-83
2021/09/02 03:50:44;;;;;;;24.15;9.30;;;;;;;;;;5032799;28;20025;-83
2021/09/02 03:53:10;;;;;;;27.80;9.32;;;;;;;;;;5030821;28;20033;-83
2021/09/02 03:55:35;;;;;;;23.07;9.83;;;;;;;;;;5031350;28;20049;-83
2021/09/02 03:58:00;;;;;;;28.35;10.68;;;;;;;;;;5031233;28;20270;-83
2021/09/02 04:00:25;;;;;;;24.83;9.15;;;;;;;;;;5029468;28;20389;-83
2021/09/02 04:02:50;;;;;;;22.27;9.60;;;;;;;;;;5031213;28;20029;-83
2021/09/02 04:05:15;;;;;;;26.87;10.17;;;;;;;;;;5034211;28;20279;-83
2021/09/02 04:07:41;;;;;;;27.43;9.67;;;;;;;;;;5033398;28;20120;-83
2021/09/02 04:10:06;;;;;;;21.77;9.27;;;;;;;;;;5032589;28;20763;-83
2021/09/02 04:12:32;;;;;;;23.42;10.27;;;;;;;;;;5032157;28;20049;-83
2021/09/02 04:14:57;;;;;;;24.00;9.25;;;;;;;;;;5033785;28;20083;-83
2021/09/02 04:17:23;;;;;;;21.67;9.30;;;;;;;;;;5038739;28;20045;-83
2021/09/02 04:19:48;;;;;;;23.67;9.90;;;;;;;;;;5040078;28;20022;-83
2021/09/02 04:22:13;;;;;;;22.33;9.93;;;;;;;;;;5040897;28;20021;-83
2021/09/02 04:24:38;;;;;;;22.08;9.68;;;;;;;;;;5040935;28;20268;-84
2021/09/02 04:27:04;;;;;;;26.37;10.03;;;;;;;;;;5039535;28;20028;-83
2021/09/02 04:29:29;;;;;;;22.33;9.13;;;;;;;;;;5038597;28;20083;-83
2021/09/02 04:31:54;;;;;;;28.37;9.83;;;;;;;;;;5036958;28;20018;-83
2021/09/02 04:34:19;;;;;;;19.63;9.70;;;;;;;;;;5036494;28;20253;-83
2021/09/02 04:36:44;;;;;;;21.20;9.93;;;;;;;;;;5035535;28;21052;-83
2021/09/02 04:39:10;;;;;;;26.87;9.90;;;;;;;;;;5035112;28;20263;-83
2021/09/02 04:41:35;;;;;;;23.90;10.00;;;;;;;;;;5034753;28;20272;-83
2021/09/02 04:44:00;;;;;;;21.35;9.30;;;;;;;;;;5032455;28;20053;-83
2021/09/02 04:46:26;;;;;;;25.03;10.60;;;;;;;;;;5033730;28;20056;-83
2021/09/02 04:48:51;;;;;;;22.42;9.95;;;;;;;;;;5032073;28;20263;-83
2021/09/02 04:51:16;;;;;;;22.17;11.37;;;;;;;;;;5040674;28;20017;-83
2021/09/02 04:53:42;;;;;;;24.38;9.38;;;;;;;;;;5039888;28;20264;-83
2021/09/02 04:56:07;;;;;;;19.15;9.93;;;;;;;;;;5037066;28;20878;-83
2021/09/02 04:58:32;;;;;;;26.13;10.17;;;;;;;;;;5035253;28;20025;-83
2021/09/02 05:00:57;;;;;;;22.33;9.90;;;;;;;;;;5036620;28;20390;-83
2021/09/02 05:03:23;;;;;;;28.73;11.23;;;;;;;;;;5035623;28;20263;-83
2021/09/02 05:05:48;;;;;;;24.17;10.43;;;;;;;;;;5034879;28;20029;-83
2021/09/02 05:08:13;;;;;;;24.75;9.68;;;;;;;;;;5031928;28;20022;-83
2021/09/02 05:10:38;;;;;;;21.27;9.37;;;;;;;;;;5033678;28;20030;-82
2021/09/02 05:13:03;;;;;;;28.17;9.97;;;;;;;;;;5033226;28;20029;-83
2021/09/02 05:15:29;;;;;;;24.08;11.77;;;;;;;;;;5034434;28;20666;-83
2021/09/02 05:17:54;;;;;;;26.67;9.90;;;;;;;;;;5040527;28;20466;-83
2021/09/02 05:20:19;;;;;;;25.05;10.15;;;;;;;;;;5040240;28;20030;-83
2021/09/02 05:22:45;;;;;;;27.80;10.43;;;;;;;;;;5038021;28;20032;-83
2021/09/02 05:25:10;;;;;;;23.10;10.60;;;;;;;;;;5036879;28;20759;-83
2021/09/02 05:27:36;;;;;;;21.60;9.40;;;;;;;;;;5036048;28;20112;-83
2021/09/02 05:30:02;;;;;;;31.80;12.07;;;;;;;;;;5033353;28;20029;-83
2021/09/02 05:32:28;;;;;;;28.83;10.90;;;;;;;;;;5034284;28;20358;-81
2021/09/02 05:34:53;;;;;;;37.40;11.05;;;;;;;;;;5032336;28;20028;-83
2021/09/02 05:37:18;;;;;;;35.67;10.90;;;;;;;;;;5033488;28;20036;-83
2021/09/02 05:39:43;;;;;;;29.20;10.00;;;;;;;;;;5033806;28;20053;-83
2021/09/02 05:42:10;;;;;;;25.27;9.90;;;;;;;;;;5036795;28;20291;-83
2021/09/02 05:44:36;;;;;;;22.90;11.57;;;;;;;;;;5037847;28;20616;-83
2021/09/02 05:47:01;;;;;;;24.50;10.77;;;;;;;;;;5037419;28;20025;-84
2021/09/02 05:49:26;;;;;;;24.08;10.20;;;;;;;;;;5036545;28;20280;-83
2021/09/02 05:51:52;;;;;;;29.88;11.13;;;;;;;;;;5033743;28;20029;-83
2021/09/02 05:54:17;;;;;;;22.83;10.05;;;;;;;;;;5039147;28;20056;-83
2021/09/02 05:56:42;;;;;;;24.02;9.95;;;;;;;;;;5037619;28;20013;-83
2021/09/02 05:59:07;;;;;;;18.15;9.40;;;;;;;;;;5036112;28;20025;-83
2021/09/02 06:01:32;;;;;;;21.50;9.70;;;;;;;;;;5033386;28;20021;-83
2021/09/02 06:03:58;;;;;;;19.42;9.05;;;;;;;;;;5034266;28;20276;-83
2021/09/02 06:06:23;;;;;;;25.70;9.70;;;;;;;;;;5032480;28;20040;-83
2021/09/02 06:08:48;;;;;;;18.73;8.97;;;;;;;;;;5033282;28;20263;-83
2021/09/02 06:11:13;;;;;;;23.77;10.05;;;;;;;;;;5037578;28;20268;-83
2021/09/02 06:13:39;;;;;;;23.00;10.52;;;;;;;;;;5038611;28;20025;-83
2021/09/02 06:16:04;;;;;;;23.90;9.30;;;;;;;;;;5036662;28;20098;-83
2021/09/02 06:18:30;;;;;;;23.63;9.40;;;;;;;;;;5035520;28;20264;-83
2021/09/02 06:20:55;;;;;;;20.10;9.60;;;;;;;;;;5035053;28;20022;-83
2021/09/02 06:23:20;;;;;;;22.08;9.55;;;;;;;;;;5033921;28;20033;-83
2021/09/02 06:25:46;;;;;;;28.60;9.55;;;;;;;;;;5034496;28;20113;-83
2021/09/02 06:28:11;;;;;;;24.85;9.65;;;;;;;;;;5036468;28;20045;-83
2021/09/02 06:30:36;;;;;;;29.33;10.40;;;;;;;;;;5034987;28;20087;-83
2021/09/02 06:33:01;;;;;;;22.23;9.50;;;;;;;;;;5032513;28;20334;-83
2021/09/02 06:35:26;;;;;;;25.80;10.13;;;;;;;;;;5034633;28;20068;-83
2021/09/02 06:37:52;;;;;;;23.05;9.68;;;;;;;;;;5033168;28;20039;-83
2021/09/02 06:40:17;;;;;;;36.87;11.07;;;;;;;;;;5037700;28;20025;-84
2021/09/02 06:42:42;;;;;;;22.73;11.10;;;;;;;;;;5038759;28;20268;-84
2021/09/02 06:45:08;;;;;;;20.47;10.07;;;;;;;;;;5037221;28;20022;-83
2021/09/02 06:47:33;;;;;;;26.02;10.35;;;;;;;;;;5034911;28;20291;-82
2021/09/02 06:49:59;;;;;;;25.92;10.52;;;;;;;;;;5032243;28;20025;-83
2021/09/02 06:52:24;;;;;;;21.42;9.60;;;;;;;;;;5031399;28;20024;-83
2021/09/02 06:54:49;;;;;;;28.38;11.77;;;;;;;;;;5030733;28;20071;-83
2021/09/02 06:57:14;;;;;;;24.97;10.83;;;;;;;;;;5031647;28;20092;-83
2021/09/02 06:59:40;;;;;;;23.30;11.17;;;;;;;;;;5031930;28;20260;-83
2021/09/02 07:02:05;;;;;;;18.45;9.25;;;;;;;;;;5035446;28;20288;-83
2021/09/02 07:04:30;;;;;;;25.95;11.13;;;;;;;;;;5035762;28;20033;-84
2021/09/02 07:06:55;;;;;;;17.47;9.63;;;;;;;;;;5038998;28;20025;-84
2021/09/02 07:09:21;;;;;;;24.13;10.93;;;;;;;;;;5038360;28;20021;-84
2021/09/02 07:11:46;;;;;;;22.30;10.30;;;;;;;;;;5037838;28;20025;-83
2021/09/02 07:14:12;;;;;;;20.85;11.10;;;;;;;;;;5036543;28;20026;-83
2021/09/02 07:16:37;;;;;;;24.00;10.98;;;;;;;;;;5035797;28;20148;-83
2021/09/02 07:19:02;;;;;;;30.47;11.60;;;;;;;;;;5034980;28;20025;-83
2021/09/02 07:21:27;;;;;;;20.67;10.90;;;;;;;;;;5035162;28;20052;-83
2021/09/02 07:23:52;;;;;;;25.03;11.53;;;;;;;;;;5034031;28;20452;-84
2021/09/02 07:26:18;;;;;;;20.55;10.07;;;;;;;;;;5032530;28;20675;-83
2021/09/02 07:28:43;;;;;;;20.15;10.20;;;;;;;;;;5031519;28;20028;-83
2021/09/02 07:31:08;;;;;;;22.53;10.83;;;;;;;;;;5031221;28;20029;-81
2021/09/02 07:33:33;;;;;;;20.43;9.40;;;;;;;;;;5030494;28;20612;-82
2021/09/02 07:35:58;;;;;;;24.83;11.00;;;;;;;;;;5028874;28;20781;-82
2021/09/02 07:38:24;;;;;;;17.17;9.57;;;;;;;;;;5030082;28;20783;-81
2021/09/02 07:40:49;;;;;;;21.53;9.63;;;;;;;;;;5035222;28;20021;-83
2021/09/02 07:43:14;;;;;;;22.57;9.53;;;;;;;;;;5034456;28;20275;-83
2021/09/02 07:45:39;;;;;;;24.83;9.47;;;;;;;;;;5033499;28;20041;-82
2021/09/02 07:48:04;;;;;;;26.10;9.70;;;;;;;;;;5030832;28;20441;-82
2021/09/02 07:50:30;;;;;;;25.23;9.73;;;;;;;;;;5030225;28;20791;-82
2021/09/02 07:52:55;;;;;;;21.77;9.83;;;;;;;;;;5031878;28;20271;-83
2021/09/02 07:55:20;;;;;;;23.37;9.27;;;;;;;;;;5031424;28;20295;-83
2021/09/02 07:57:48;;;;;;;23.35;9.35;;;;;;;;;;5030503;28;20480;-82
2021/09/02 08:00:14;;;;;;;19.75;8.95;;;;;;;;;;5029902;28;20528;-82
2021/09/02 08:02:39;;;;;;;19.95;9.15;;;;;;;;;;5028477;28;20037;-81
2021/09/02 08:05:05;;;;;;;29.95;11.05;;;;;;;;;;5030978;28;20028;-82
2021/09/02 08:07:30;;;;;;;22.95;9.32;;;;;;;;;;5033756;28;20029;-82
2021/09/02 08:09:56;;;;;;;24.10;10.33;;;;;;;;;;5034308;28;20033;-83
2021/09/02 08:12:21;;;;;;;23.83;10.60;;;;;;;;;;5032214;28;20026;-82
2021/09/02 08:14:46;;;;;;;22.38;9.23;;;;;;;;;;5031432;28;20260;-82
2021/09/02 08:17:11;;;;;;;24.10;9.70;;;;;;;;;;5032402;28;20046;-82
2021/09/02 08:19:36;;;;;;;23.90;9.70;;;;;;;;;;5031983;28;20732;-82
2021/09/02 08:22:02;;;;;;;24.77;9.60;;;;;;;;;;5031540;28;20033;-82
2021/09/02 08:24:27;;;;;;;20.55;10.13;;;;;;;;;;5030734;28;20021;-82
2021/09/02 08:26:53;;;;;;;18.80;9.30;;;;;;;;;;5030868;28;20025;-82
2021/09/02 08:29:18;;;;;;;27.70;10.65;;;;;;;;;;5028822;28;20288;-82
2021/09/02 08:31:44;;;;;;;18.73;8.95;;;;;;;;;;5030369;28;20100;-82
2021/09/02 08:34:09;;;;;;;22.80;10.45;;;;;;;;;;5030186;28;20022;-82
2021/09/02 08:36:34;;;;;;;20.17;8.90;;;;;;;;;;5028466;28;20085;-82
2021/09/02 08:38:59;;;;;;;18.03;9.37;;;;;;;;;;5030345;28;21041;-82
2021/09/02 08:41:25;;;;;;;19.42;9.98;;;;;;;;;;5029973;28;20028;-82
2021/09/02 08:43:50;;;;;;;23.40;9.85;;;;;;;;;;5030678;28;20548;-83
2021/09/02 08:46:15;;;;;;;19.47;9.43;;;;;;;;;;5033512;28;20021;-82
2021/09/02 08:48:44;;;;;;;16.52;8.93;;;;;;;;;;5032981;28;20256;-82
2021/09/02 08:51:10;;;;;;;16.23;9.93;;;;;;;;;;5032874;28;20121;-82
2021/09/02 08:53:35;;;;;;;24.60;9.50;;;;;;;;;;5031052;28;20100;-82
2021/09/02 08:56:00;;;;;;;27.08;10.02;;;;;;;;;;5030173;28;20499;-82
2021/09/02 08:58:26;;;;;;;22.75;10.15;;;;;;;;;;5032638;28;20757;-82
2021/09/02 09:00:51;;;;;;;22.67;10.15;;;;;;;;;;5030407;28;20144;-82
2021/09/02 09:03:17;;;;;;;25.43;10.20;;;;;;;;;;5031886;28;20029;-82
2021/09/02 09:05:42;;;;;;;19.50;10.55;;;;;;;;;;5034470;28;20029;-82
2021/09/02 09:08:09;;;;;;;18.13;9.13;;;;;;;;;;5033787;28;20025;-82
2021/09/02 09:10:34;;;;;;;17.98;9.63;;;;;;;;;;5033870;28;20324;-82
2021/09/02 09:13:00;;;;;;;19.73;9.40;;;;;;;;;;5034086;28;20060;-82
2021/09/02 09:15:27;;;;;;;16.77;9.40;;;;;;;;;;5035089;28;20051;-83
2021/09/02 09:17:54;;;;;;;19.77;9.52;;;;;;;;;;5034885;28;20405;-82
2021/09/02 09:20:20;;;;;;;19.08;10.13;;;;;;;;;;5034358;28;20021;-82
2021/09/02 09:22:54;;;;;;;20.63;9.68;;;;;;;;;;5033017;28;20032;-82
2021/09/02 09:25:20;;;;;;;18.13;9.23;;;;;;;;;;5033680;28;20064;-82
2021/09/02 09:27:54;;;;;;;20.57;9.57;;;;;;;;;;5032409;28;20025;-82
2021/09/02 09:30:23;;;;;;;19.65;9.38;;;;;;;;;;5033342;28;20112;-82
2021/09/02 09:32:55;;;;;;;21.42;10.27;;;;;;;;;;5031928;28;20024;-81
2021/09/02 09:35:22;;;;;;;17.17;9.82;;;;;;;;;;5033258;28;20021;-82
2021/09/02 09:37:48;;;;;;;21.05;9.07;;;;;;;;;;5032886;28;20112;-82
2021/09/02 09:40:16;;;;;;;17.15;9.15;;;;;;;;;;5032899;28;20216;-82
2021/09/02 09:43:00;;;;;;;24.52;11.20;;;;;;;;;;5032497;28;20116;-83
2021/09/02 09:45:40;;;;;;;19.83;9.70;;;;;;;;;;5036220;28;20025;-82
2021/09/02 09:48:27;;;;;;;16.23;9.57;;;;;;;;;;5034358;28;20021;-82
2021/09/02 09:51:07;;;;;;;18.08;9.75;;;;;;;;;;5035102;28;20026;-82
2021/09/02 09:53:33;;;;;;;19.65;9.32;;;;;;;;;;5034734;28;20026;-83
2021/09/02 09:55:58;;;;;;;22.40;10.60;;;;;;;;;;5033178;28;20027;-82
2021/09/02 09:58:25;;;;;;;19.33;9.07;;;;;;;;;;5032201;28;20488;-82
2021/09/02 10:00:54;;;;;;;22.83;9.90;;;;;;;;;;5034211;28;20201;-82
2021/09/02 10:03:19;;;;;;;20.52;9.90;;;;;;;;;;5031450;28;20039;-82
2021/09/02 10:05:47;;;;;;;18.60;9.70;;;;;;;;;;5032670;28;20512;-82
2021/09/02 10:08:12;;;;;;;19.63;10.05;;;;;;;;;;5032589;28;20041;-82
2021/09/02 10:10:37;;;;;;;21.02;9.80;;;;;;;;;;5032277;28;20036;-82
2021/09/02 10:13:02;;;;;;;16.27;9.30;;;;;;;;;;5030649;28;20091;-81
2021/09/02 10:15:30;;;;;;;22.02;9.88;;;;;;;;;;5031089;28;20021;-82
2021/09/02 10:17:56;;;;;;;16.55;9.55;;;;;;;;;;5030378;28;20091;-83
2021/09/02 10:20:22;;;;;;;19.40;10.05;;;;;;;;;;5030207;28;20037;-82
2021/09/02 10:22:49;;;;;;;23.70;9.57;;;;;;;;;;5031474;28;20025;-82
2021/09/02 10:25:40;;;;;;;19.25;10.13;;;;;;;;;;5031382;28;20025;-82
2021/09/02 10:28:06;;;;;;;21.88;9.70;;;;;;;;;;5028121;28;20033;-82
2021/09/02 10:30:32;;;;;;;19.15;9.52;;;;;;;;;;5031467;28;20466;-82
2021/09/02 10:32:58;;;;;;;19.98;9.05;;;;;;;;;;5031307;28;20461;-82
2021/09/02 10:35:26;;;;;;;19.55;10.85;;;;;;;;;;5031516;28;20022;-82
2021/09/02 10:37:54;;;;;;;21.35;9.80;;;;;;;;;;5029505;28;20486;-82
2021/09/02 10:40:19;;;;;;;17.35;10.15;;;;;;;;;;5031072;28;20027;-82
2021/09/02 10:42:46;;;;;;;20.63;9.20;;;;;;;;;;5033131;28;20025;-82
2021/09/02 10:45:30;;;;;;;16.17;9.85;;;;;;;;;;5031349;28;20460;-83
2021/09/02 10:47:56;;;;;;;17.00;9.38;;;;;;;;;;5034607;28;20021;-83
2021/09/02 10:50:23;;;;;;;17.30;9.35;;;;;;;;;;5035359;28;20033;-83
2021/09/02 10:52:48;;;;;;;17.13;10.02;;;;;;;;;;5035215;28;20025;-83
2021/09/02 10:55:28;;;;;;;17.67;9.57;;;;;;;;;;5033695;28;20032;-82
2021/09/02 10:57:53;;;;;;;19.50;9.60;;;;;;;;;;5032733;28;20026;-82
2021/09/02 11:00:30;;;;;;;14.98;9.43;;;;;;;;;;5031595;28;20484;-82
2021/09/02 11:03:10;;;;;;;17.85;9.88;;;;;;;;;;5032637;28;20029;-83
2021/09/02 11:05:35;;;;;;;16.35;9.90;;;;;;;;;;5032407;28;20025;-82
2021/09/02 11:08:00;;;;;;;18.40;10.70;;;;;;;;;;5031520;28;20040;-82
2021/09/02 11:10:25;;;;;;;18.20;10.57;;;;;;;;;;5030981;28;20025;-82
2021/09/02 11:12:58;;;;;;;16.37;10.10;;;;;;;;;;5031430;28;20013;-82
2021/09/02 11:15:24;;;;;;;21.48;9.95;;;;;;;;;;5031297;28;20619;-82
2021/09/02 11:17:54;;;;;;;21.25;10.55;;;;;;;;;;5030499;28;20080;-81
2021/09/02 11:20:21;;;;;;;16.60;10.02;;;;;;;;;;5029158;28;20037;-82
2021/09/02 11:22:46;;;;;;;20.00;9.48;;;;;;;;;;5028689;28;20052;-82
2021/09/02 11:25:12;;;;;;;17.33;9.93;;;;;;;;;;5030358;28;20029;-82
2021/09/02 11:27:37;;;;;;;21.88;10.30;;;;;;;;;;5028776;28;20029;-82
2021/09/02 11:30:14;;;;;;;16.00;9.33;;;;;;;;;;5033409;28;20020;-82
2021/09/02 11:32:39;;;;;;;14.60;8.48;;;;;;;;;;5035325;28;20021;-82
2021/09/02 11:35:05;;;;;;;17.80;9.85;;;;;;;;;;5029100;28;20026;-83
2021/09/02 11:37:37;;;;;;;18.05;9.25;;;;;;;;;;5043776;28;20020;-82
2021/09/02 11:40:03;;;;;;;18.88;9.40;;;;;;;;;;5032602;28;20034;-82
2021/09/02 11:42:31;;;;;;;18.67;9.80;;;;;;;;;;5042614;28;20055;-82
2021/09/02 11:44:58;;;;;;;22.05;9.65;;;;;;;;;;5037572;28;20033;-82
2021/09/02 11:47:23;;;;;;;18.83;10.05;;;;;;;;;;5043807;28;20159;-82
2021/09/02 11:49:57;;;;;;;20.47;10.33;;;;;;;;;;5027600;28;20532;-82
2021/09/02 11:52:23;;;;;;;17.67;9.75;;;;;;;;;;5015215;28;20017;-82
2021/09/02 11:54:48;;;;;;;20.17;9.40;;;;;;;;;;5039586;28;20021;-82
2021/09/02 11:57:23;;;;;;;18.47;9.57;;;;;;;;;;5044163;28;20051;-82
2021/09/02 11:59:49;;;;;;;20.08;10.48;;;;;;;;;;5033883;28;20036;-83
2021/09/02 12:02:14;;;;;;;17.45;9.63;;;;;;;;;;5046100;28;20021;-82
2021/09/02 12:04:39;;;;;;;19.73;9.77;;;;;;;;;;5036474;28;20112;-82
2021/09/02 12:07:05;;;;;;;18.33;9.23;;;;;;;;;;5036865;28;20662;-82
2021/09/02 12:09:31;;;;;;;17.00;10.20;;;;;;;;;;5042633;28;20033;-82
2021/09/02 12:11:57;;;;;;;20.38;10.45;;;;;;;;;;5030455;28;20025;-82
2021/09/02 12:14:24;;;;;;;17.90;10.05;;;;;;;;;;5041781;28;20025;-82
2021/09/02 12:17:01;;;;;;;14.80;9.00;;;;;;;;;;5033908;28;20068;-82
2021/09/02 12:19:27;;;;;;;23.88;9.95;;;;;;;;;;5033295;28;20029;-82
2021/09/02 12:21:52;;;;;;;51.30;10.52;;;;;;;;;;5045434;28;20511;-83
2021/09/02 12:24:17;;;;;;;17.73;10.60;;;;;;;;;;5030258;28;20034;-82
2021/09/02 12:26:49;;;;;;;20.50;10.43;;;;;;;;;;5036782;28;20384;-83
2021/09/02 12:29:15;;;;;;;14.52;9.32;;;;;;;;;;5037446;28;20283;-82
2021/09/02 12:31:41;;;;;;;20.25;10.13;;;;;;;;;;5042652;28;20024;-83
2021/09/02 12:34:08;;;;;;;18.17;10.43;;;;;;;;;;5033348;28;20021;-82
2021/09/02 12:36:37;;;;;;;15.63;9.63;;;;;;;;;;5043010;28;20021;-82
2021/09/02 12:39:13;;;;;;;18.70;10.40;;;;;;;;;;5038701;28;20029;-82
2021/09/02 12:41:39;;;;;;;18.52;9.75;;;;;;;;;;5035069;28;20032;-82
2021/09/02 12:44:06;;;;;;;15.52;8.27;;;;;;;;;;5047225;28;20503;-83
2021/09/02 12:46:46;;;;;;;12.68;8.80;;;;;;;;;;5039839;28;20013;-83
2021/09/02 12:49:12;;;;;;;12.60;8.40;;;;;;;;;;5055161;28;20017;-83
2021/09/02 12:51:37;;;;;;;11.97;7.50;;;;;;;;;;5041716;28;20032;-83
2021/09/02 12:54:02;;;;;;;11.98;7.70;;;;;;;;;;5051875;28;20328;-83
2021/09/02 12:56:37;;;;;;;14.85;8.25;;;;;;;;;;5039917;28;20036;-84
2021/09/02 12:59:05;;;;;;;12.77;7.78;;;;;;;;;;5053045;28;20599;-83
2021/09/02 13:01:31;;;;;;;10.25;6.63;;;;;;;;;;5036509;28;20404;-83
2021/09/02 13:04:00;;;;;;;14.20;7.45;;;;;;;;;;5048415;28;20031;-83
2021/09/02 13:06:26;;;;;;;11.82;7.10;;;;;;;;;;5037567;28;20021;-83
2021/09/02 13:08:52;;;;;;;13.77;7.20;;;;;;;;;;5043014;28;20488;-83
2021/09/02 13:11:17;;;;;;;19.43;7.53;;;;;;;;;;5044392;28;20033;-83
2021/09/02 13:13:42;;;;;;;11.50;7.20;;;;;;;;;;5035081;28;20135;-83
2021/09/02 13:16:07;;;;;;;13.93;6.30;;;;;;;;;;5050926;28;20095;-84
2021/09/02 13:18:32;;;;;;;12.57;6.67;;;;;;;;;;5039115;28;20021;-84
2021/09/02 13:20:57;;;;;;;16.57;7.70;;;;;;;;;;5042749;28;20084;-83
2021/09/02 13:23:23;;;;;;;13.07;7.23;;;;;;;;;;5045082;28;20163;-83
2021/09/02 13:25:50;;;;;;;12.60;6.70;;;;;;;;;;5048559;28;20028;-84
2021/09/02 13:28:16;;;;;;;12.38;6.85;;;;;;;;;;5019517;28;20020;-83
2021/09/02 13:30:41;;;;;;;11.30;6.88;;;;;;;;;;5042945;28;20477;-83
2021/09/02 13:33:07;;;;;;;12.05;6.70;;;;;;;;;;5039998;28;20047;-83
2021/09/02 13:35:32;;;;;;;11.77;7.30;;;;;;;;;;5033840;28;20025;-83
2021/09/02 13:37:57;;;;;;;12.07;6.40;;;;;;;;;;5045720;28;20021;-83
2021/09/02 13:40:22;;;;;;;10.13;6.77;;;;;;;;;;5035697;28;20082;-84
2021/09/02 13:42:48;;;;;;;11.33;6.50;;;;;;;;;;5043790;28;20028;-83
2021/09/02 13:45:13;;;;;;;13.57;7.10;;;;;;;;;;5040568;28;20259;-83
2021/09/02 13:47:39;;;;;;;12.10;7.10;;;;;;;;;;5035171;28;20259;-83
2021/09/02 13:50:04;;;;;;;12.63;6.17;;;;;;;;;;5046828;28;20028;-84
2021/09/02 13:52:36;;;;;;;15.45;6.32;;;;;;;;;;5035167;28;20033;-83
2021/09/02 13:55:01;;;;;;;14.65;6.60;;;;;;;;;;5038402;28;20382;-83
2021/09/02 13:57:29;;;;;;;11.35;6.50;;;;;;;;;;5042496;28;20025;-83
2021/09/02 13:59:54;;;;;;;12.10;6.53;;;;;;;;;;5031863;28;20057;-83
2021/09/02 14:02:19;;;;;;;14.30;6.23;;;;;;;;;;5028572;28;20048;-83
2021/09/02 14:04:44;;;;;;;10.77;6.00;;;;;;;;;;5036568;28;20029;-83
2021/09/02 14:07:10;;;;;;;12.70;6.23;;;;;;;;;;5038097;28;20029;-83
2021/09/02 14:09:35;;;;;;;12.57;6.13;;;;;;;;;;5044114;28;20056;-84
2021/09/02 14:12:00;;;;;;;13.90;6.03;;;;;;;;;;5032257;28;20613;-83
2021/09/02 14:14:25;;;;;;;11.98;6.28;;;;;;;;;;5043431;28;20017;-83
2021/09/02 14:16:51;;;;;;;13.10;5.93;;;;;;;;;;5036831;28;20794;-84